Time;durP1;ratioP1;P1;durP2;ratioP2;P2;SDS_P1;SDS_P2;PMS_P1;PMS_P2;Temp;Humidity;BMP_temperature;BMP_pressure;BME280_temperature;BME280_humidity;BME280_pressure;Samples;Min_cycle;Max_cycle;Signal;HPM_P1;HPM_P2
2021/09/10 00:00:30;;;;;;;7.50;6.50;;;;;;;23.28;45.76;96526.16;4963652;28;20182;-67
2021/09/10 00:02:55;;;;;;;10.07;6.87;;;;;;;23.29;45.83;96517.09;4975870;28;20292;-67
2021/09/10 00:05:21;;;;;;;8.30;6.70;;;;;;;23.22;45.88;96521.81;4976061;28;20198;-68
2021/09/10 00:07:46;;;;;;;8.73;6.60;;;;;;;23.16;46.20;96516.41;4975556;28;20194;-67
2021/09/10 00:10:12;;;;;;;8.23;7.40;;;;;;;22.99;46.89;96518.31;4975684;28;20217;-66
2021/09/10 00:12:38;;;;;;;11.33;7.97;;;;;;;23.11;46.41;96521.66;4975510;28;20205;-68
2021/09/10 00:15:04;;;;;;;7.70;7.03;;;;;;;23.16;46.44;96511.06;4975745;28;20190;-68
2021/09/10 00:17:30;;;;;;;10.90;7.30;;;;;;;23.14;46.50;96520.34;4975382;28;20174;-67
2021/09/10 00:19:55;;;;;;;10.53;6.93;;;;;;;23.10;46.59;96514.72;4970484;28;20797;-68
2021/09/10 00:22:21;;;;;;;6.53;5.83;;;;;;;23.12;46.42;96517.94;4967916;28;20206;-67
2021/09/10 00:24:47;;;;;;;9.70;6.67;;;;;;;23.09;46.60;96518.44;4975593;28;20181;-67
2021/09/10 00:27:12;;;;;;;7.53;6.47;;;;;;;23.00;46.74;96519.94;4975380;28;20708;-67
2021/09/10 00:29:38;;;;;;;8.30;6.30;;;;;;;23.01;46.70;96521.56;4975628;28;20510;-68
2021/09/10 00:32:04;;;;;;;7.50;6.67;;;;;;;23.02;47.11;96515.94;4973930;28;20210;-66
2021/09/10 00:34:29;;;;;;;7.80;6.70;;;;;;;22.98;47.17;96519.38;4975749;28;20293;-67
2021/09/10 00:36:55;;;;;;;7.30;6.30;;;;;;;23.01;47.03;96518.88;4975353;28;20182;-67
2021/09/10 00:39:22;;;;;;;11.90;6.60;;;;;;;23.00;47.03;96518.06;4975124;28;20284;-68
2021/09/10 00:41:48;;;;;;;8.37;6.90;;;;;;;22.99;47.24;96521.00;4975640;28;20189;-67
2021/09/10 00:44:13;;;;;;;7.90;6.53;;;;;;;22.98;47.40;96519.38;4975408;28;20978;-68
2021/09/10 00:46:39;;;;;;;7.00;6.20;;;;;;;22.96;47.30;96524.16;4976053;28;20170;-67
2021/09/10 00:49:04;;;;;;;8.93;6.43;;;;;;;22.97;47.27;96521.25;4976136;28;20182;-70
2021/09/10 00:51:30;;;;;;;7.30;6.60;;;;;;;22.96;47.22;96518.81;4969414;28;20178;-69
2021/09/10 00:53:56;;;;;;;7.30;6.50;;;;;;;22.88;47.55;96516.59;4975067;28;20202;-70
2021/09/10 00:56:22;;;;;;;12.13;6.43;;;;;;;22.90;47.42;96519.81;4964505;28;20174;-69
2021/09/10 00:58:47;;;;;;;7.60;6.80;;;;;;;22.82;47.70;96516.50;4974081;28;20718;-69
2021/09/10 01:01:13;;;;;;;7.37;6.57;;;;;;;22.86;47.78;96514.97;4975366;28;20520;-70
2021/09/10 01:03:38;;;;;;;11.07;7.27;;;;;;;22.76;48.19;96514.00;4974269;28;20190;-69
2021/09/10 01:06:04;;;;;;;9.83;7.10;;;;;;;22.82;48.20;96513.84;4975285;28;20178;-69
2021/09/10 01:08:31;;;;;;;8.90;7.23;;;;;;;22.73;48.52;96518.00;4975468;28;20269;-70
2021/09/10 01:11:00;;;;;;;7.90;7.10;;;;;;;22.91;47.99;96514.22;4974244;28;20585;-70
2021/09/10 01:13:26;;;;;;;8.10;6.80;;;;;;;22.80;48.34;96515.97;4975040;28;20461;-69
2021/09/10 01:15:53;;;;;;;11.10;6.90;;;;;;;22.83;48.29;96520.00;4975156;28;20413;-69
2021/09/10 01:18:19;;;;;;;11.10;7.47;;;;;;;22.77;48.51;96513.78;4974545;28;20955;-70
2021/09/10 01:20:48;;;;;;;7.83;6.50;;;;;;;22.80;48.28;96513.31;4969949;28;20421;-70
2021/09/10 01:23:14;;;;;;;8.90;7.20;;;;;;;22.77;48.36;96515.63;4965939;28;20426;-71
2021/09/10 01:25:39;;;;;;;9.10;6.97;;;;;;;22.76;48.56;96514.84;4975086;28;20800;-69
2021/09/10 01:28:05;;;;;;;7.90;6.50;;;;;;;22.78;48.60;96503.91;4981465;28;20428;-70
2021/09/10 01:30:33;;;;;;;10.30;7.17;;;;;;;22.68;48.86;96508.06;4974472;28;20186;-70
2021/09/10 01:33:02;;;;;;;8.00;7.20;;;;;;;22.68;48.84;96505.41;4965116;28;20779;-70
2021/09/10 01:35:28;;;;;;;7.87;7.03;;;;;;;22.67;48.89;96511.00;4974715;28;20432;-70
2021/09/10 01:37:54;;;;;;;7.10;6.50;;;;;;;22.59;49.04;96506.88;4973837;28;20425;-70
2021/09/10 01:40:20;;;;;;;7.40;6.63;;;;;;;22.59;49.16;96514.06;4974605;28;20193;-70
2021/09/10 01:42:46;;;;;;;8.70;7.57;;;;;;;22.44;49.59;96512.78;4973207;28;20437;-70
2021/09/10 01:45:13;;;;;;;8.97;7.00;;;;;;;22.44;49.75;96507.47;4973314;28;21014;-71
2021/09/10 01:47:39;;;;;;;7.97;7.23;;;;;;;22.42;49.84;96514.94;4975608;28;20915;-70
2021/09/10 01:50:08;;;;;;;7.70;7.00;;;;;;;22.38;50.16;96513.75;4970794;28;20418;-71
2021/09/10 01:52:34;;;;;;;9.83;7.10;;;;;;;22.40;50.04;96512.44;4975604;28;20205;-71
2021/09/10 01:54:59;;;;;;;7.90;7.20;;;;;;;22.41;49.96;96510.63;4975868;28;20472;-70
2021/09/10 01:57:25;;;;;;;8.00;7.23;;;;;;;22.37;50.48;96514.81;4964249;28;20179;-69
2021/09/10 01:59:51;;;;;;;8.40;7.70;;;;;;;22.24;50.88;96510.63;4944229;28;20536;-69
2021/09/10 02:02:16;;;;;;;13.70;8.37;;;;;;;22.19;51.21;96505.22;4951883;28;20281;-69
2021/09/10 02:04:42;;;;;;;9.27;8.33;;;;;;;22.11;51.53;96506.41;4950528;28;20245;-70
2021/09/10 02:07:08;;;;;;;9.63;8.47;;;;;;;22.08;51.71;96510.41;4974482;28;20261;-70
2021/09/10 02:09:34;;;;;;;10.70;8.23;;;;;;;22.16;51.67;96506.50;4974722;28;20181;-69
2021/09/10 02:12:00;;;;;;;8.57;7.77;;;;;;;22.19;51.70;96500.66;4974536;28;20716;-70
2021/09/10 02:14:26;;;;;;;9.17;7.50;;;;;;;22.02;51.93;96500.69;4964709;28;20455;-70
2021/09/10 02:16:52;;;;;;;15.20;7.63;;;;;;;22.17;51.75;96499.31;4952946;28;20417;-70
2021/09/10 02:19:18;;;;;;;8.70;7.80;;;;;;;22.21;51.58;96498.56;4972519;28;20417;-69
2021/09/10 02:21:43;;;;;;;8.80;7.90;;;;;;;22.19;51.98;96506.00;4962892;28;20426;-69
2021/09/10 02:24:09;;;;;;;9.77;8.13;;;;;;;22.08;52.22;96506.91;4973213;28;20488;-69
2021/09/10 02:26:35;;;;;;;9.63;8.63;;;;;;;22.14;52.30;96500.59;4973790;28;20177;-70
2021/09/10 02:29:00;;;;;;;9.30;8.40;;;;;;;22.33;51.61;96501.16;4973039;28;20278;-69
2021/09/10 02:31:26;;;;;;;8.80;7.60;;;;;;;22.36;51.49;96500.66;4973639;28;20173;-70
2021/09/10 02:33:52;;;;;;;11.73;7.83;;;;;;;22.45;51.27;96505.63;4973029;28;20301;-69
2021/09/10 02:36:17;;;;;;;8.83;8.00;;;;;;;22.49;51.28;96512.88;4973412;28;20568;-69
2021/09/10 02:38:43;;;;;;;8.20;7.50;;;;;;;22.52;51.16;96508.91;4973239;28;20182;-69
2021/09/10 02:41:09;;;;;;;11.60;7.93;;;;;;;22.53;50.84;96503.34;4973703;28;20185;-69
2021/09/10 02:43:34;;;;;;;11.47;7.77;;;;;;;22.57;50.86;96511.66;4973220;28;20193;-69
2021/09/10 02:46:00;;;;;;;9.83;8.10;;;;;;;22.58;50.54;96501.78;4973115;28;20577;-69
2021/09/10 02:48:25;;;;;;;16.10;7.30;;;;;;;22.55;50.62;96509.25;4972997;28;20208;-69
2021/09/10 02:50:51;;;;;;;12.17;7.43;;;;;;;22.58;50.30;96510.59;4967781;28;20182;-69
2021/09/10 02:53:16;;;;;;;8.40;7.40;;;;;;;22.61;50.21;96501.28;4973264;28;20209;-69
2021/09/10 02:55:42;;;;;;;12.10;7.10;;;;;;;22.65;50.06;96505.09;4973518;28;20178;-69
2021/09/10 02:58:08;;;;;;;9.60;7.57;;;;;;;22.68;50.04;96507.28;4957088;28;20187;-69
2021/09/10 03:00:33;;;;;;;10.13;7.57;;;;;;;22.67;49.95;96495.75;4971826;28;20715;-69
2021/09/10 03:02:59;;;;;;;8.03;6.87;;;;;;;22.62;49.93;96497.56;4956723;28;20202;-69
2021/09/10 03:05:24;;;;;;;8.80;7.80;;;;;;;22.57;50.24;96508.97;4966941;28;20646;-70
2021/09/10 03:07:51;;;;;;;9.23;8.30;;;;;;;22.59;49.92;96503.38;4969708;28;20208;-69
2021/09/10 03:10:17;;;;;;;8.73;7.93;;;;;;;22.51;50.21;96508.09;4973264;28;20182;-69
2021/09/10 03:12:42;;;;;;;8.93;8.13;;;;;;;22.49;50.47;96501.41;4973514;28;20815;-70
2021/09/10 03:15:12;;;;;;;12.20;7.73;;;;;;;22.45;50.73;96508.28;4972723;28;20200;-70
2021/09/10 03:17:37;;;;;;;12.30;8.13;;;;;;;22.44;50.80;96504.00;4971388;28;20178;-70
2021/09/10 03:20:04;;;;;;;9.03;7.57;;;;;;;22.37;51.03;96499.59;4967815;28;20462;-70
2021/09/10 03:22:30;;;;;;;8.73;7.93;;;;;;;22.37;51.16;96506.81;4965500;28;20229;-69
2021/09/10 03:24:55;;;;;;;10.10;8.10;;;;;;;22.33;51.25;96500.34;4960415;28;20589;-68
2021/09/10 03:27:21;;;;;;;11.03;8.37;;;;;;;22.34;51.25;96493.94;4956643;28;20194;-69
2021/09/10 03:29:47;;;;;;;10.17;8.10;;;;;;;22.29;51.39;96500.00;4956465;28;20198;-70
2021/09/10 03:32:12;;;;;;;9.23;8.20;;;;;;;22.24;51.73;96491.97;4971693;28;20202;-70
2021/09/10 03:34:38;;;;;;;9.43;8.07;;;;;;;22.23;51.43;96490.34;4971277;28;20576;-69
2021/09/10 03:37:04;;;;;;;8.60;7.70;;;;;;;22.21;51.73;96489.75;4972729;28;20194;-69
2021/09/10 03:39:29;;;;;;;9.03;8.13;;;;;;;22.18;51.81;96488.38;4956884;28;20189;-69
2021/09/10 03:41:55;;;;;;;8.50;7.60;;;;;;;22.14;51.84;96489.94;4971764;28;20924;-68
2021/09/10 03:44:21;;;;;;;17.20;8.17;;;;;;;22.17;51.62;96481.44;4972717;28;20228;-69
2021/09/10 03:46:46;;;;;;;10.40;8.60;;;;;;;22.13;51.67;96474.16;4972713;28;20273;-69
2021/09/10 03:49:12;;;;;;;9.23;8.10;;;;;;;22.05;51.87;96475.41;4971691;28;20640;-69
2021/09/10 03:51:37;;;;;;;8.73;7.80;;;;;;;22.01;52.08;96471.59;4972233;28;20189;-69
2021/09/10 03:54:03;;;;;;;9.40;8.23;;;;;;;21.90;52.43;96471.44;4971707;28;20248;-68
2021/09/10 03:56:29;;;;;;;9.90;8.63;;;;;;;21.89;52.56;96479.66;4972058;28;20216;-69
2021/09/10 03:58:54;;;;;;;9.13;8.20;;;;;;;21.76;53.08;96475.47;4971961;28;20221;-68
2021/09/10 04:01:20;;;;;;;9.63;8.73;;;;;;;21.77;52.98;96477.09;4972173;28;20182;-69
2021/09/10 04:03:45;;;;;;;13.03;9.13;;;;;;;21.71;53.05;96481.53;4958624;28;20223;-68
2021/09/10 04:06:11;;;;;;;9.77;8.87;;;;;;;21.59;53.62;96486.09;4963494;28;20186;-69
2021/09/10 04:08:37;;;;;;;13.83;8.70;;;;;;;21.53;53.90;96485.19;4970421;28;20668;-69
2021/09/10 04:11:03;;;;;;;11.60;9.30;;;;;;;21.63;53.31;96481.91;4970257;28;20217;-69
2021/09/10 04:13:28;;;;;;;11.03;8.97;;;;;;;21.63;53.61;96477.41;4972135;28;20460;-69
2021/09/10 04:15:54;;;;;;;13.40;9.03;;;;;;;21.61;53.67;96484.81;4971952;28;20194;-68
2021/09/10 04:18:20;;;;;;;10.27;8.77;;;;;;;21.49;54.26;96482.19;4970629;28;20190;-69
2021/09/10 04:20:46;;;;;;;9.47;8.50;;;;;;;21.40;54.16;96493.50;4971936;28;20198;-68
2021/09/10 04:23:11;;;;;;;10.53;9.43;;;;;;;21.40;54.38;96485.50;4964289;28;20975;-70
2021/09/10 04:25:37;;;;;;;10.60;9.27;;;;;;;21.45;54.13;96485.56;4971686;28;20190;-69
2021/09/10 04:28:03;;;;;;;12.83;9.37;;;;;;;21.42;54.43;96491.41;4971483;28;20190;-68
2021/09/10 04:30:28;;;;;;;12.10;8.90;;;;;;;21.37;54.32;96477.97;4971761;28;20198;-69
2021/09/10 04:32:54;;;;;;;12.73;9.43;;;;;;;21.36;54.65;96481.69;4971933;28;20849;-69
2021/09/10 04:35:19;;;;;;;15.63;9.97;;;;;;;21.28;54.54;96480.22;4972835;28;20181;-69
2021/09/10 04:37:45;;;;;;;12.57;9.73;;;;;;;21.24;54.84;96484.38;4972531;28;20189;-69
2021/09/10 04:40:11;;;;;;;11.70;8.93;;;;;;;21.25;54.47;96486.00;4969959;28;20206;-69
2021/09/10 04:42:38;;;;;;;11.93;9.03;;;;;;;21.23;54.79;96478.25;4971602;28;20245;-70
2021/09/10 04:45:05;;;;;;;12.20;9.60;;;;;;;21.20;54.58;96489.38;4975873;28;20429;-69
2021/09/10 04:47:30;;;;;;;12.30;10.63;;;;;;;21.14;54.62;96490.34;4975996;28;20516;-69
2021/09/10 04:49:56;;;;;;;21.73;9.70;;;;;;;21.11;54.72;96496.16;4975387;28;20879;-68
2021/09/10 04:52:21;;;;;;;9.67;8.67;;;;;;;21.08;54.75;96489.44;4975242;28;20209;-69
2021/09/10 04:54:47;;;;;;;9.80;8.80;;;;;;;21.04;55.22;96487.50;4975327;28;20205;-69
2021/09/10 04:57:13;;;;;;;16.20;9.27;;;;;;;21.06;54.85;96485.38;4966735;28;20675;-68
2021/09/10 04:59:38;;;;;;;14.07;10.60;;;;;;;21.04;55.38;96484.84;4975250;28;20189;-69
2021/09/10 05:02:04;;;;;;;11.37;9.60;;;;;;;21.04;55.34;96482.19;4974898;28;20192;-67
2021/09/10 05:04:29;;;;;;;10.30;9.00;;;;;;;21.03;55.38;96489.34;4975162;28;20273;-71
2021/09/10 05:06:55;;;;;;;16.87;10.10;;;;;;;21.04;55.21;96490.97;4975026;28;20208;-69
2021/09/10 05:09:21;;;;;;;12.27;9.07;;;;;;;21.02;55.08;96493.88;4972014;28;20272;-69
2021/09/10 05:11:47;;;;;;;12.23;9.07;;;;;;;20.99;55.12;96494.34;4975692;28;20628;-70
2021/09/10 05:14:14;;;;;;;12.40;10.00;;;;;;;21.00;55.13;96495.97;4975150;28;20213;-69
2021/09/10 05:16:39;;;;;;;16.40;8.47;;;;;;;20.99;55.07;96494.34;4974843;28;20433;-70
2021/09/10 05:19:05;;;;;;;22.33;10.20;;;;;;;21.00;55.01;96495.97;4974527;28;20425;-67
2021/09/10 05:21:31;;;;;;;9.80;8.80;;;;;;;20.96;55.02;96500.13;4969732;28;20183;-68
2021/09/10 05:23:58;;;;;;;21.40;10.20;;;;;;;20.99;55.17;96498.84;4972336;28;20692;-69
2021/09/10 05:26:24;;;;;;;28.00;12.37;;;;;;;21.02;55.19;96501.88;4958026;28;20429;-69
2021/09/10 05:28:50;;;;;;;18.23;11.10;;;;;;;21.08;55.24;96508.09;4957255;28;20441;-69
2021/09/10 05:31:15;;;;;;;12.60;10.07;;;;;;;21.11;55.17;96499.59;4957731;28;20917;-69
2021/09/10 05:33:41;;;;;;;16.43;10.00;;;;;;;21.22;55.24;96497.97;4941486;28;20317;-71
2021/09/10 05:36:07;;;;;;;12.73;10.23;;;;;;;21.28;54.80;96499.69;4974325;28;20213;-69
2021/09/10 05:38:32;;;;;;;16.03;9.50;;;;;;;21.43;54.44;96496.47;4969225;28;20253;-70
2021/09/10 05:40:58;;;;;;;13.97;9.27;;;;;;;21.41;54.35;96506.56;4987487;28;20190;-68
2021/09/10 05:43:24;;;;;;;13.13;9.13;;;;;;;21.53;53.89;96503.88;4974466;28;20198;-69
2021/09/10 05:45:49;;;;;;;12.47;10.03;;;;;;;21.60;53.73;96507.19;4974485;28;20193;-69
2021/09/10 05:48:22;;;;;;;14.70;9.53;;;;;;;21.67;53.47;96504.38;4974245;28;20285;-69
2021/09/10 05:50:49;;;;;;;16.10;9.30;;;;;;;21.72;53.16;96507.16;4969099;28;20249;-69
2021/09/10 05:53:14;;;;;;;16.13;9.40;;;;;;;21.81;53.05;96512.88;4974368;28;20457;-69
2021/09/10 05:55:40;;;;;;;17.50;9.77;;;;;;;21.84;52.45;96500.94;4962727;28;20432;-69
2021/09/10 05:58:06;;;;;;;11.70;8.80;;;;;;;21.92;52.33;96504.00;4974133;28;20796;-69
2021/09/10 06:00:31;;;;;;;25.10;9.43;;;;;;;22.13;52.05;96500.84;4968678;28;20209;-69
2021/09/10 06:02:57;;;;;;;15.63;8.70;;;;;;;22.25;51.58;96513.03;4974179;28;20216;-69
2021/09/10 06:05:22;;;;;;;12.40;8.50;;;;;;;22.45;51.13;96514.41;4974418;28;20181;-68
2021/09/10 06:07:48;;;;;;;22.07;9.50;;;;;;;22.78;50.55;96518.06;4973820;28;20675;-69
2021/09/10 06:10:14;;;;;;;14.53;9.10;;;;;;;23.29;49.64;96519.78;4966144;28;20189;-68
2021/09/10 06:12:40;;;;;;;9.10;8.20;;;;;;;23.62;48.07;96516.09;4966450;28;20206;-68
2021/09/10 06:15:06;;;;;;;11.50;7.87;;;;;;;23.84;47.93;96525.09;4972786;28;20221;-68
2021/09/10 06:17:31;;;;;;;10.13;8.40;;;;;;;24.35;46.70;96520.16;4973454;28;20421;-69
2021/09/10 06:19:57;;;;;;;10.40;8.20;;;;;;;24.87;45.59;96523.16;4971857;28;20265;-69
2021/09/10 06:22:23;;;;;;;9.60;8.10;;;;;;;25.36;44.51;96518.50;4965683;28;20244;-69
2021/09/10 06:24:49;;;;;;;14.10;8.10;;;;;;;25.86;43.53;96522.38;4973671;28;20264;-68
2021/09/10 06:27:15;;;;;;;10.73;8.40;;;;;;;26.52;42.05;96518.06;4958696;28;20464;-70
2021/09/10 06:29:40;;;;;;;12.57;7.43;;;;;;;27.02;40.80;96522.78;4966327;28;20240;-69
2021/09/10 06:32:06;;;;;;;12.47;7.53;;;;;;;27.24;39.91;96521.59;4974314;28;20281;-69
2021/09/10 06:34:32;;;;;;;9.33;7.17;;;;;;;27.14;40.04;96522.47;4975944;28;20292;-68
2021/09/10 06:36:57;;;;;;;11.07;7.30;;;;;;;26.85;40.25;96525.78;4966286;28;20325;-68
2021/09/10 06:39:23;;;;;;;8.43;7.53;;;;;;;26.36;40.91;96525.34;4973647;28;20545;-68
2021/09/10 06:41:49;;;;;;;10.57;6.87;;;;;;;26.19;41.67;96522.97;4973669;28;20197;-68
2021/09/10 06:44:14;;;;;;;7.73;7.03;;;;;;;26.11;41.49;96522.69;4972029;28;20206;-69
2021/09/10 06:46:40;;;;;;;9.30;7.43;;;;;;;26.05;41.68;96524.53;4966877;28;20274;-69
2021/09/10 06:49:05;;;;;;;7.90;7.20;;;;;;;25.96;42.28;96531.53;4971095;28;20594;-68
2021/09/10 06:51:31;;;;;;;10.53;7.10;;;;;;;25.78;42.82;96530.97;4971606;28;20245;-69
2021/09/10 06:53:57;;;;;;;7.80;6.30;;;;;;;25.40;43.15;96530.31;4971099;28;20284;-69
2021/09/10 06:56:22;;;;;;;9.50;7.17;;;;;;;25.38;42.91;96527.09;4967603;28;20181;-69
2021/09/10 06:58:48;;;;;;;8.33;7.30;;;;;;;25.08;44.09;96534.78;4973126;28;20189;-68
2021/09/10 07:01:13;;;;;;;8.23;7.37;;;;;;;25.30;43.78;96529.25;4973176;28;20208;-69
2021/09/10 07:03:39;;;;;;;7.50;6.63;;;;;;;25.20;43.93;96531.88;4973069;28;20205;-69
2021/09/10 07:06:06;;;;;;;9.60;7.20;;;;;;;25.12;43.75;96525.16;4972684;28;20662;-69
2021/09/10 07:08:32;;;;;;;8.57;7.60;;;;;;;24.88;44.89;96532.81;4973657;28;20197;-69
2021/09/10 07:11:01;;;;;;;8.87;7.00;;;;;;;25.05;44.58;96535.31;4964260;28;20442;-69
2021/09/10 07:13:26;;;;;;;15.97;7.43;;;;;;;25.52;43.37;96538.19;4974752;28;20206;-70
2021/09/10 07:15:52;;;;;;;10.30;7.80;;;;;;;25.61;44.09;96534.69;4978687;28;20453;-71
2021/09/10 07:18:20;;;;;;;9.50;7.10;;;;;;;25.49;43.29;96534.13;4992170;28;20178;-70
2021/09/10 07:20:45;;;;;;;7.80;6.53;;;;;;;24.74;44.90;96534.34;4989425;28;20225;-71
2021/09/10 07:23:12;;;;;;;7.67;6.93;;;;;;;24.63;45.31;96534.28;4992069;28;20459;-70
2021/09/10 07:25:38;;;;;;;8.20;7.50;;;;;;;24.46;46.48;96534.44;4990587;28;20418;-70
2021/09/10 07:28:03;;;;;;;8.70;7.43;;;;;;;24.12;46.94;96541.94;4989895;28;20440;-68
2021/09/10 07:30:29;;;;;;;8.30;7.57;;;;;;;24.57;46.02;96543.34;4989365;28;20268;-71
2021/09/10 07:32:55;;;;;;;8.00;7.20;;;;;;;24.99;45.01;96547.88;4990601;28;20202;-68
2021/09/10 07:35:20;;;;;;;7.53;6.80;;;;;;;24.86;45.30;96545.66;4986160;28;20265;-70
2021/09/10 07:37:48;;;;;;;9.17;6.97;;;;;;;25.50;44.00;96551.81;4985474;28;20246;-70
2021/09/10 07:40:14;;;;;;;16.10;7.40;;;;;;;25.23;44.55;96547.44;4975030;28;20184;-68
2021/09/10 07:42:40;;;;;;;8.03;6.80;;;;;;;25.08;44.88;96550.88;4973516;28;20453;-68
2021/09/10 07:45:07;;;;;;;8.87;7.23;;;;;;;25.51;44.12;96553.44;4956384;28;20414;-69
2021/09/10 07:47:32;;;;;;;9.50;7.63;;;;;;;25.36;43.91;96558.72;4961661;28;20521;-69
2021/09/10 07:49:58;;;;;;;7.43;6.73;;;;;;;24.80;45.37;96552.88;4966774;28;21027;-69
2021/09/10 07:52:24;;;;;;;9.70;8.17;;;;;;;24.30;46.79;96562.16;4973516;28;20293;-69
2021/09/10 07:54:49;;;;;;;10.13;7.50;;;;;;;24.99;45.40;96569.31;4973852;28;20205;-68
2021/09/10 07:57:15;;;;;;;9.97;7.30;;;;;;;25.31;44.58;96564.88;4973212;28;20272;-69
2021/09/10 07:59:40;;;;;;;15.83;10.77;;;;;;;25.61;44.11;96569.56;4965234;28;20635;-69
2021/09/10 08:02:06;;;;;;;8.93;7.20;;;;;;;25.99;43.17;96563.16;4972101;28;20182;-70
2021/09/10 08:04:32;;;;;;;10.10;7.30;;;;;;;25.98;43.42;96565.06;4976116;28;20185;-70
2021/09/10 08:06:57;;;;;;;8.00;7.23;;;;;;;25.28;44.40;96585.00;4963503;28;20553;-68
2021/09/10 08:09:23;;;;;;;7.70;6.90;;;;;;;25.27;44.57;96582.56;4973514;28;20177;-68
2021/09/10 08:11:48;;;;;;;18.10;7.80;;;;;;;25.79;43.09;96580.06;4969148;28;20698;-69
2021/09/10 08:14:14;;;;;;;9.43;7.37;;;;;;;26.18;42.54;96572.34;4965651;28;20209;-69
2021/09/10 08:16:40;;;;;;;8.17;7.03;;;;;;;25.35;44.11;96586.59;4976294;28;20182;-70
2021/09/10 08:19:06;;;;;;;9.23;8.00;;;;;;;25.81;43.27;96583.28;4969794;28;20237;-69
2021/09/10 08:21:31;;;;;;;8.20;6.90;;;;;;;25.95;43.35;96583.59;4969709;28;20214;-69
2021/09/10 08:23:57;;;;;;;11.13;7.10;;;;;;;26.05;42.87;96579.00;4964336;28;20449;-69
2021/09/10 08:26:23;;;;;;;11.53;6.57;;;;;;;25.91;43.60;96584.09;4976023;28;20642;-68
2021/09/10 08:28:48;;;;;;;16.10;7.07;;;;;;;25.63;44.28;96589.94;4967693;28;20200;-70
2021/09/10 08:31:14;;;;;;;11.10;6.73;;;;;;;26.11;42.85;96587.91;4960039;28;20563;-69
2021/09/10 08:33:39;;;;;;;8.80;7.90;;;;;;;25.33;44.31;96588.78;4975770;28;20236;-70
2021/09/10 08:36:05;;;;;;;7.60;6.90;;;;;;;25.73;44.25;96598.03;4975796;28;20268;-70
2021/09/10 08:38:44;;;;;;;9.30;7.13;;;;;;;25.75;44.02;96590.50;5108983;27;20540;-70
2021/09/10 08:41:12;;;;;;;13.40;6.77;;;;;;;26.07;43.08;96602.94;5109490;28;20423;-69
2021/09/10 08:43:46;;;;;;;8.47;7.03;;;;;;;26.25;43.01;96595.44;5107924;28;20200;-68
2021/09/10 08:46:11;;;;;;;11.87;6.73;;;;;;;26.00;43.17;96605.03;5108754;28;20469;-68
2021/09/10 08:48:37;;;;;;;8.23;7.43;;;;;;;26.75;41.86;96604.53;5107640;28;20921;-68
2021/09/10 08:51:03;;;;;;;7.67;6.87;;;;;;;26.67;41.41;96607.78;5106647;28;20242;-68
2021/09/10 08:53:28;;;;;;;7.63;6.70;;;;;;;26.48;41.93;96613.69;5108578;28;20201;-69
2021/09/10 08:55:54;;;;;;;7.03;6.30;;;;;;;27.22;40.65;96601.75;5108756;28;20185;-68
2021/09/10 08:58:19;;;;;;;10.17;6.60;;;;;;;26.29;41.83;96601.88;5108859;28;20682;-69
2021/09/10 09:00:45;;;;;;;11.93;7.60;;;;;;;26.07;41.76;96605.59;5107606;28;20181;-69
2021/09/10 09:03:11;;;;;;;8.13;6.50;;;;;;;26.53;40.99;96602.94;5111787;28;20277;-70
2021/09/10 09:05:38;;;;;;;7.80;7.00;;;;;;;26.21;42.37;96604.00;5109365;28;20232;-69
2021/09/10 09:08:09;;;;;;;6.70;6.10;;;;;;;26.95;40.82;96602.91;5108092;28;20901;-69
2021/09/10 09:10:59;;;;;;;7.20;6.43;;;;;;;25.84;42.85;96610.38;5107664;28;20435;-69
2021/09/10 09:13:33;;;;;;;14.30;7.70;;;;;;;25.41;43.68;96623.16;5109149;28;20449;-69
2021/09/10 09:16:18;;;;;;;9.50;7.30;;;;;;;25.35;44.86;96610.75;5108298;28;20435;-70
2021/09/10 09:18:49;;;;;;;7.50;6.90;;;;;;;25.75;43.88;96623.53;5108254;28;20419;-69
2021/09/10 09:21:24;;;;;;;9.50;7.57;;;;;;;24.81;45.85;96615.31;5105585;28;20906;-69
2021/09/10 09:23:52;;;;;;;8.83;7.47;;;;;;;25.25;44.34;96616.88;5108212;28;21089;-69
2021/09/10 09:26:24;;;;;;;7.97;6.60;;;;;;;24.86;45.52;96617.22;5108197;28;20941;-68
2021/09/10 09:29:13;;;;;;;7.27;6.57;;;;;;;25.49;44.42;96619.94;5108184;27;20427;-69
2021/09/10 09:31:39;;;;;;;7.87;7.20;;;;;;;26.06;43.78;96614.72;5108289;28;20810;-68
2021/09/10 09:34:05;;;;;;;7.90;7.20;;;;;;;25.84;43.32;96609.59;5107872;28;20451;-69
2021/09/10 09:36:32;;;;;;;7.60;6.70;;;;;;;25.38;43.91;96615.59;5108203;28;20427;-68
2021/09/10 09:38:58;;;;;;;7.93;7.23;;;;;;;25.58;44.22;96618.38;5107908;28;20419;-69
2021/09/10 09:41:24;;;;;;;7.70;6.90;;;;;;;25.47;44.47;96615.91;5108267;28;20431;-69
2021/09/10 09:43:52;;;;;;;9.30;7.03;;;;;;;25.48;44.50;96607.59;5107994;28;20545;-70
2021/09/10 09:46:22;;;;;;;9.87;7.53;;;;;;;25.52;44.26;96614.06;5108060;28;20454;-70
2021/09/10 09:48:50;;;;;;;13.53;7.03;;;;;;;25.88;43.57;96611.47;5101583;28;20427;-68
2021/09/10 09:51:18;;;;;;;9.53;7.20;;;;;;;26.28;42.70;96613.69;5092171;28;20431;-69
2021/09/10 09:53:44;;;;;;;9.70;7.40;;;;;;;26.66;42.07;96614.22;5101440;28;20572;-69
2021/09/10 09:56:11;;;;;;;7.63;6.93;;;;;;;27.14;41.09;96611.97;5093642;28;20427;-69
2021/09/10 09:58:38;;;;;;;8.70;7.30;;;;;;;27.68;40.29;96609.63;5092591;28;20474;-70
2021/09/10 10:01:04;;;;;;;8.33;7.47;;;;;;;27.83;39.40;96613.34;5092347;28;21029;-69
2021/09/10 10:03:30;;;;;;;7.80;6.90;;;;;;;26.89;40.36;96620.94;5095253;28;20762;-69
2021/09/10 10:06:02;;;;;;;7.70;7.00;;;;;;;27.60;39.49;96610.19;5075758;28;20424;-69
2021/09/10 10:08:38;;;;;;;7.73;6.27;;;;;;;27.24;39.72;96613.03;5093421;28;20219;-70
2021/09/10 10:11:10;;;;;;;8.77;7.50;;;;;;;27.64;39.26;96605.88;5092410;28;20434;-69
2021/09/10 10:13:36;;;;;;;7.50;6.80;;;;;;;27.96;38.69;96617.28;5093904;28;20443;-69
2021/09/10 10:16:02;;;;;;;10.30;7.40;;;;;;;28.39;38.42;96624.81;5093792;28;20416;-68
2021/09/10 10:18:43;;;;;;;7.00;6.40;;;;;;;28.09;38.68;96613.19;5093194;28;20753;-69
2021/09/10 10:21:13;;;;;;;8.23;6.83;;;;;;;28.63;36.94;96609.50;5096055;28;20220;-68
2021/09/10 10:23:42;;;;;;;7.90;6.37;;;;;;;27.25;39.40;96609.25;5091762;28;20584;-68
2021/09/10 10:26:14;;;;;;;7.47;5.83;;;;;;;27.75;38.54;96602.06;5093060;28;20447;-69
2021/09/10 10:29:06;;;;;;;8.87;7.17;;;;;;;27.98;38.50;96609.72;5093052;28;20419;-68
2021/09/10 10:32:00;;;;;;;11.17;6.73;;;;;;;27.16;40.03;96606.31;5093275;28;20415;-68
2021/09/10 10:34:28;;;;;;;6.20;5.60;;;;;;;27.86;38.13;96610.06;5092643;28;20412;-68
2021/09/10 10:36:54;;;;;;;7.53;6.73;;;;;;;28.15;38.02;96614.75;5093097;28;20479;-69
2021/09/10 10:39:30;;;;;;;9.27;7.53;;;;;;;27.54;39.08;96595.97;5093270;28;20459;-69
2021/09/10 10:42:02;;;;;;;8.73;6.10;;;;;;;28.12;38.31;96599.16;5093160;28;20185;-70
2021/09/10 10:44:33;;;;;;;16.43;7.53;;;;;;;28.53;37.13;96598.81;5093252;28;20514;-69
2021/09/10 10:47:06;;;;;;;8.37;7.10;;;;;;;28.87;36.59;96597.97;5092584;28;20430;-69
2021/09/10 10:49:35;;;;;;;7.83;6.90;;;;;;;29.24;35.77;96590.31;5093445;28;20865;-70
2021/09/10 10:52:01;;;;;;;7.23;6.53;;;;;;;27.90;37.66;96597.66;5090874;28;20434;-67
2021/09/10 10:54:28;;;;;;;8.23;6.17;;;;;;;28.14;37.08;96591.59;5092723;28;20784;-68
2021/09/10 10:56:54;;;;;;;10.43;6.23;;;;;;;28.92;35.95;96589.84;5092272;28;20694;-69
2021/09/10 10:59:25;;;;;;;8.00;5.90;;;;;;;29.03;35.93;96585.16;5091868;28;20434;-69
2021/09/10 11:02:26;;;;;;;8.23;7.27;;;;;;;28.80;36.17;96589.44;5097053;28;20795;-69
2021/09/10 11:04:56;;;;;;;7.37;5.13;;;;;;;29.10;35.71;96584.81;5096326;28;20423;-71
2021/09/10 11:07:23;;;;;;;7.00;6.40;;;;;;;28.87;36.13;96581.81;5091456;28;20464;-70
2021/09/10 11:10:14;;;;;;;11.60;6.30;;;;;;;28.98;36.10;96581.72;5093133;28;20419;-70
2021/09/10 11:12:40;;;;;;;6.97;6.27;;;;;;;28.66;36.76;96587.38;5093025;28;21033;-70
2021/09/10 11:15:36;;;;;;;8.23;6.17;;;;;;;28.78;36.46;96584.34;5092807;28;20428;-69
2021/09/10 11:18:08;;;;;;;7.83;6.30;;;;;;;27.83;38.27;96589.09;5087542;28;20929;-70
2021/09/10 11:20:46;;;;;;;7.53;5.80;;;;;;;28.77;37.07;96579.22;5083302;28;20439;-69
2021/09/10 11:23:14;;;;;;;9.17;6.37;;;;;;;29.43;36.05;96576.88;5080010;28;20524;-71
2021/09/10 11:25:44;;;;;;;6.93;5.70;;;;;;;29.94;35.51;96578.06;5089986;28;20472;-70
2021/09/10 11:28:10;;;;;;;7.83;6.27;;;;;;;28.41;37.41;96585.75;5089568;28;20654;-70